Time;durP1;ratioP1;P1;durP2;ratioP2;P2;SDS_P1;SDS_P2;PMS_P1;PMS_P2;Temp;Humidity;BMP_temperature;BMP_pressure;BME280_temperature;BME280_humidity;BME280_pressure;Samples;Min_cycle;Max_cycle;Signal;HPM_P1;HPM_P2
2021/09/30 00:00:16;;;;;;;2.58;0.85;;;;;;;5.21;100.00;94082.84;2102979;28;20020;-77
2021/09/30 00:01:17;;;;;;;1.85;0.65;;;;;;;5.15;100.00;94080.88;2113099;28;20389;-79
2021/09/30 00:02:18;;;;;;;2.33;0.65;;;;;;;5.21;100.00;94079.44;2125540;27;20037;-81
2021/09/30 00:03:19;;;;;;;1.40;0.70;;;;;;;5.20;100.00;94085.88;2124031;27;20023;-81
2021/09/30 00:04:21;;;;;;;3.85;0.60;;;;;;;5.28;100.00;94068.94;2115670;28;20015;-79
2021/09/30 00:05:22;;;;;;;1.27;0.50;;;;;;;5.18;100.00;94080.94;2115624;28;20485;-81
2021/09/30 00:06:23;;;;;;;1.00;0.60;;;;;;;5.12;100.00;94082.34;2115451;28;20035;-78
2021/09/30 00:07:24;;;;;;;0.88;0.55;;;;;;;5.26;100.00;94081.78;2115193;28;20070;-77
2021/09/30 00:08:25;;;;;;;4.45;0.75;;;;;;;5.15;100.00;94078.22;2109526;28;20024;-78
2021/09/30 00:09:26;;;;;;;7.97;0.73;;;;;;;4.99;100.00;94087.09;2121282;27;20072;-78
2021/09/30 00:10:27;;;;;;;1.05;0.73;;;;;;;4.92;100.00;94084.34;2115480;28;20532;-76
2021/09/30 00:11:30;;;;;;;5.53;0.65;;;;;;;4.93;100.00;94085.88;2121879;27;20836;-78
2021/09/30 00:12:35;;;;;;;1.10;0.60;;;;;;;4.90;100.00;94089.22;2116863;27;20864;-80
2021/09/30 00:42:25;;;;;;;3.50;0.60;;;;;;;3.87;100.00;94082.91;2089775;28;20029;-77
2021/09/30 00:47:38;;;;;;;0.63;0.60;;;;;;;3.86;100.00;94086.66;2081498;28;20022;-81
2021/09/30 00:49:21;;;;;;;0.68;0.40;;;;;;;3.83;100.00;94091.91;2076203;28;20025;-83
2021/09/30 00:50:22;;;;;;;2.13;0.50;;;;;;;3.89;100.00;94090.50;2081113;28;20106;-79
2021/09/30 00:51:30;;;;;;;2.72;0.40;;;;;;;3.77;100.00;94089.50;2065151;28;20542;-80
2021/09/30 00:55:35;;;;;;;0.50;0.50;;;;;;;3.72;100.00;94096.97;2124017;27;20035;-80
2021/09/30 02:22:25;;;;;;;0.60;0.60;;;;;;;2.74;100.00;94111.81;2123720;27;20057;-80
2021/09/30 02:26:08;;;;;;;2.83;0.63;;;;;;;2.54;100.00;94110.19;2097889;28;20021;-78
2021/09/30 02:27:37;;;;;;;1.45;0.80;;;;;;;2.62;100.00;94114.53;2106248;28;20031;-77
2021/09/30 02:58:47;;;;;;;0.63;0.60;;;;;;;2.29;100.00;94106.19;2123622;28;20032;-79
2021/09/30 02:59:51;;;;;;;0.88;0.57;;;;;;;2.29;100.00;94109.59;2106875;28;20015;-80
2021/09/30 03:00:55;;;;;;;1.75;0.90;;;;;;;2.21;100.00;94111.28;2114902;28;20053;-80
2021/09/30 03:01:57;;;;;;;0.90;0.60;;;;;;;2.16;100.00;94111.53;2123483;27;20117;-81
2021/09/30 03:03:01;;;;;;;1.38;0.50;;;;;;;2.20;100.00;94108.97;2122498;27;20024;-79
2021/09/30 03:04:04;;;;;;;4.68;0.88;;;;;;;2.20;100.00;94106.34;2107394;28;20119;-79
2021/09/30 03:05:06;;;;;;;0.57;0.57;;;;;;;2.15;100.00;94107.34;2107926;28;20024;-80
2021/09/30 03:06:08;;;;;;;1.15;0.73;;;;;;;2.11;100.00;94108.34;2116737;28;20023;-81
2021/09/30 03:07:11;;;;;;;0.70;0.52;;;;;;;2.15;100.00;94110.00;2116242;28;20076;-79
2021/09/30 03:08:12;;;;;;;2.15;0.70;;;;;;;2.12;100.00;94104.63;2116476;28;20054;-79
2021/09/30 03:09:17;;;;;;;2.92;0.63;;;;;;;2.12;100.00;94110.66;2115943;28;20019;-77
2021/09/30 03:10:20;;;;;;;0.68;0.68;;;;;;;2.20;100.00;94108.97;2115974;28;20084;-81
2021/09/30 03:11:23;;;;;;;4.38;0.63;;;;;;;2.21;100.00;94110.50;2099279;28;20025;-78
2021/09/30 03:12:29;;;;;;;1.30;0.50;;;;;;;2.24;100.00;94109.84;2107824;28;20099;-81
2021/09/30 03:13:32;;;;;;;13.20;0.68;;;;;;;2.13;100.00;94104.28;2115831;28;20122;-79
2021/09/30 03:14:45;;;;;;;2.35;0.73;;;;;;;2.12;100.00;94108.03;2099394;28;20024;-79
2021/09/30 03:15:54;;;;;;;0.68;0.65;;;;;;;2.11;100.00;94114.41;2106782;27;20019;-80
2021/09/30 03:17:01;;;;;;;1.67;0.50;;;;;;;2.11;100.00;94103.84;2115510;28;20073;-79
2021/09/30 03:23:03;;;;;;;2.45;0.73;;;;;;;2.15;100.00;94122.38;2107346;28;20040;-81
2021/09/30 03:24:05;;;;;;;0.40;0.40;;;;;;;2.05;100.00;94126.28;2107384;28;20066;-79
2021/09/30 03:25:06;;;;;;;4.30;0.60;;;;;;;2.03;100.00;94122.47;2099021;28;20031;-80
2021/09/30 03:26:07;;;;;;;0.68;0.63;;;;;;;2.06;100.00;94121.78;2098973;28;20024;-80
2021/09/30 03:27:10;;;;;;;0.57;0.57;;;;;;;2.03;100.00;94128.50;2099031;28;20489;-81
2021/09/30 03:28:11;;;;;;;0.47;0.47;;;;;;;2.08;100.00;94130.91;2107407;28;20381;-80
2021/09/30 03:29:13;;;;;;;1.65;0.60;;;;;;;2.09;100.00;94127.16;2107218;28;20035;-80
2021/09/30 03:30:14;;;;;;;1.38;0.47;;;;;;;2.01;100.00;94128.06;2090702;28;20055;-80
2021/09/30 03:31:15;;;;;;;1.40;0.40;;;;;;;2.06;100.00;94127.81;2099096;28;20062;-80
2021/09/30 03:32:17;;;;;;;0.40;0.40;;;;;;;1.94;100.00;94127.88;2124225;27;20118;-79
2021/09/30 03:33:19;;;;;;;0.60;0.60;;;;;;;1.89;100.00;94134.16;2124238;27;20030;-79
2021/09/30 03:34:20;;;;;;;4.85;0.60;;;;;;;1.99;100.00;94132.91;2124173;27;20054;-79
2021/09/30 03:35:24;;;;;;;8.32;5.00;;;;;;;1.96;100.00;94125.66;2115837;28;20023;-80
2021/09/30 03:36:25;;;;;;;6.30;5.80;;;;;;;2.00;100.00;94127.28;2110428;28;20024;-81
2021/09/30 03:37:26;;;;;;;3.60;3.40;;;;;;;2.05;100.00;94125.53;2115641;28;20015;-80
2021/09/30 03:38:27;;;;;;;2.75;1.30;;;;;;;1.95;100.00;94122.25;2115589;28;20019;-81
2021/09/30 03:39:28;;;;;;;10.00;0.82;;;;;;;1.85;100.00;94135.16;2100594;28;20024;-79
2021/09/30 03:40:29;;;;;;;2.05;0.75;;;;;;;1.79;100.00;94125.94;2115654;28;20483;-79
2021/09/30 03:41:30;;;;;;;8.02;0.70;;;;;;;1.86;100.00;94129.56;2124172;27;20023;-78
2021/09/30 03:42:31;;;;;;;10.00;0.85;;;;;;;1.84;100.00;94131.75;2112179;28;20026;-81
2021/09/30 03:43:32;;;;;;;0.93;0.60;;;;;;;1.75;100.00;94123.97;2098896;28;20017;-82
2021/09/30 03:44:33;;;;;;;0.77;0.50;;;;;;;1.64;100.00;94122.91;2115732;28;20034;-81
2021/09/30 03:45:34;;;;;;;0.50;0.50;;;;;;;1.71;100.00;94124.97;2123198;27;20023;-81
2021/09/30 03:46:35;;;;;;;0.40;0.40;;;;;;;1.80;100.00;94130.09;2124763;27;20042;-80
2021/09/30 03:47:37;;;;;;;0.40;0.40;;;;;;;1.76;100.00;94127.41;2124107;27;20471;-80
2021/09/30 03:48:38;;;;;;;1.75;0.45;;;;;;;1.83;100.00;94129.44;2103748;28;20036;-79
2021/09/30 03:49:39;;;;;;;0.40;0.40;;;;;;;1.72;100.00;94132.56;2102728;28;20438;-78
2021/09/30 03:50:51;;;;;;;0.40;0.40;;;;;;;1.63;100.00;94134.56;2115597;28;20023;-83
2021/09/30 03:54:25;;;;;;;0.65;0.50;;;;;;;1.79;100.00;94128.56;2107373;28;20116;-78
2021/09/30 03:59:58;;;;;;;0.95;0.70;;;;;;;1.57;100.00;94141.16;2115578;28;20057;-79
2021/09/30 04:00:59;;;;;;;1.17;0.60;;;;;;;1.64;100.00;94133.47;2100647;28;20024;-79
2021/09/30 04:02:03;;;;;;;0.95;0.50;;;;;;;1.59;100.00;94125.03;2105031;28;20792;-81
2021/09/30 04:03:05;;;;;;;0.60;0.60;;;;;;;1.57;100.00;94125.34;2112317;27;20024;-81
2021/09/30 04:04:06;;;;;;;1.00;0.80;;;;;;;1.60;100.00;94132.59;2115412;28;20051;-78
2021/09/30 04:05:07;;;;;;;0.88;0.88;;;;;;;1.59;100.00;94131.06;2115575;28;20020;-80
2021/09/30 04:06:08;;;;;;;2.10;0.80;;;;;;;1.59;100.00;94135.56;2115653;27;20118;-79
2021/09/30 04:07:09;;;;;;;0.73;0.57;;;;;;;1.62;100.00;94133.00;2120245;27;20404;-80
2021/09/30 04:08:10;;;;;;;0.80;0.40;;;;;;;1.60;100.00;94129.19;2110330;28;20024;-77
2021/09/30 04:09:11;;;;;;;2.58;0.65;;;;;;;1.59;100.00;94138.19;2115634;28;20032;-78
2021/09/30 04:10:12;;;;;;;0.75;0.70;;;;;;;1.63;100.00;94139.06;2119925;27;20112;-79
2021/09/30 04:11:14;;;;;;;4.22;0.60;;;;;;;1.69;100.00;94132.47;2119437;27;20091;-78
2021/09/30 04:12:15;;;;;;;0.50;0.50;;;;;;;1.60;100.00;94143.13;2119705;27;20046;-80
2021/09/30 04:13:16;;;;;;;0.70;0.57;;;;;;;1.48;100.00;94138.66;2107635;28;20114;-82
2021/09/30 04:14:17;;;;;;;0.50;0.50;;;;;;;1.43;100.00;94144.16;2102709;28;20048;-79
2021/09/30 04:15:18;;;;;;;1.20;0.50;;;;;;;1.35;100.00;94141.63;2110888;28;20062;-79
2021/09/30 04:16:19;;;;;;;2.45;0.55;;;;;;;1.35;100.00;94147.66;2115224;27;20027;-77
2021/09/30 04:17:19;;;;;;;0.70;0.60;;;;;;;1.40;100.00;94144.81;2111046;28;20096;-79
2021/09/30 04:18:20;;;;;;;0.60;0.60;;;;;;;1.47;100.00;94145.03;2113310;27;20046;-77
2021/09/30 04:19:23;;;;;;;0.77;0.77;;;;;;;1.40;100.00;94149.31;2117321;27;20048;-78
2021/09/30 04:20:23;;;;;;;2.67;0.55;;;;;;;1.45;100.00;94151.75;2116785;27;20027;-78
2021/09/30 04:21:24;;;;;;;0.93;0.57;;;;;;;1.38;100.00;94149.66;2106955;28;20047;-80
2021/09/30 04:22:25;;;;;;;1.65;0.50;;;;;;;1.32;100.00;94145.72;2100382;28;20424;-80
2021/09/30 04:23:26;;;;;;;0.68;0.65;;;;;;;1.29;100.00;94145.59;2087882;28;20690;-80
2021/09/30 04:24:27;;;;;;;2.03;0.77;;;;;;;1.30;100.00;94155.78;2094797;28;20024;-81
2021/09/30 04:25:29;;;;;;;0.50;0.50;;;;;;;1.32;100.00;94150.97;2102689;28;20465;-80
2021/09/30 04:26:30;;;;;;;0.70;0.60;;;;;;;1.33;100.00;94149.88;2103931;28;20153;-82
2021/09/30 04:27:31;;;;;;;0.52;0.52;;;;;;;1.37;100.00;94144.72;2112076;27;20032;-81
2021/09/30 04:28:32;;;;;;;11.52;0.60;;;;;;;1.43;100.00;94143.38;2111778;27;20027;-78
2021/09/30 04:29:33;;;;;;;2.92;0.80;;;;;;;1.45;100.00;94136.69;2104662;28;20134;-80
2021/09/30 04:30:34;;;;;;;1.35;0.57;;;;;;;1.42;100.00;94150.53;2111106;28;20043;-79
2021/09/30 04:31:35;;;;;;;6.72;0.75;;;;;;;1.46;100.00;94140.09;2114621;27;20030;-79
2021/09/30 04:32:36;;;;;;;2.72;0.50;;;;;;;1.36;100.00;94143.97;2108899;28;20031;-78
2021/09/30 04:33:37;;;;;;;1.77;0.60;;;;;;;1.27;100.00;94143.28;2113120;27;20020;-78
2021/09/30 04:34:38;;;;;;;0.60;0.60;;;;;;;1.30;100.00;94142.63;2115008;27;20046;-82
2021/09/30 04:35:40;;;;;;;2.00;0.70;;;;;;;1.34;100.00;94140.88;2113563;27;20557;-81
2021/09/30 04:36:41;;;;;;;2.35;0.63;;;;;;;1.24;100.00;94138.69;2112196;27;20020;-81
2021/09/30 04:37:42;;;;;;;0.60;0.60;;;;;;;1.31;100.00;94141.53;2110287;28;20062;-80
2021/09/30 04:38:45;;;;;;;0.60;0.60;;;;;;;1.28;100.00;94147.47;2107647;28;20105;-80
2021/09/30 04:39:46;;;;;;;1.00;0.50;;;;;;;1.21;100.00;94150.66;2111462;27;20511;-78
2021/09/30 04:40:47;;;;;;;0.85;0.57;;;;;;;1.15;100.00;94143.31;2107598;28;20027;-78
2021/09/30 04:41:48;;;;;;;0.50;0.50;;;;;;;1.16;100.00;94147.47;2102711;27;20107;-81
2021/09/30 04:42:49;;;;;;;0.50;0.50;;;;;;;1.06;100.00;94148.69;2104729;28;20016;-80
2021/09/30 04:43:50;;;;;;;2.25;0.60;;;;;;;1.12;100.00;94147.38;2107834;28;20024;-80
2021/09/30 04:44:51;;;;;;;1.00;0.50;;;;;;;1.12;100.00;94143.97;2101847;28;20020;-81
2021/09/30 04:45:52;;;;;;;2.08;0.57;;;;;;;1.07;100.00;94146.81;2110647;27;20462;-78
2021/09/30 04:46:53;;;;;;;0.60;0.60;;;;;;;1.06;100.00;94148.69;2112498;27;20027;-79
2021/09/30 04:47:54;;;;;;;1.90;0.60;;;;;;;1.11;100.00;94147.72;2111415;27;20016;-77
2021/09/30 04:48:55;;;;;;;0.50;0.50;;;;;;;1.11;100.00;94150.34;2113481;27;20131;-79
2021/09/30 04:49:56;;;;;;;0.73;0.50;;;;;;;1.20;100.00;94143.84;2102901;28;20665;-79
2021/09/30 04:50:57;;;;;;;0.93;0.60;;;;;;;1.11;100.00;94147.72;2102668;28;20032;-80
2021/09/30 04:51:58;;;;;;;1.20;0.45;;;;;;;1.15;100.00;94143.31;2111246;28;20418;-80
2021/09/30 04:53:01;;;;;;;0.52;0.50;;;;;;;1.20;100.00;94143.84;2111708;27;20138;-80
2021/09/30 04:54:03;;;;;;;0.60;0.60;;;;;;;1.19;100.00;94144.97;2110666;27;20184;-76
2021/09/30 04:55:05;;;;;;;1.08;0.50;;;;;;;1.20;100.00;94145.72;2114054;27;20047;-81
2021/09/30 04:56:05;;;;;;;0.50;0.50;;;;;;;1.19;100.00;94146.81;2116410;27;20058;-81
2021/09/30 04:57:06;;;;;;;0.43;0.43;;;;;;;1.23;100.00;94148.47;2114868;27;20423;-78
2021/09/30 04:58:08;;;;;;;4.63;0.60;;;;;;;1.05;100.00;94144.50;2098693;28;20032;-80
2021/09/30 04:59:09;;;;;;;1.17;0.70;;;;;;;1.11;100.00;94153.72;2099041;28;20376;-77
2021/09/30 05:00:10;;;;;;;0.82;0.68;;;;;;;1.10;100.00;94140.88;2114852;27;20045;-79
2021/09/30 05:01:11;;;;;;;0.68;0.60;;;;;;;0.95;100.00;94142.31;2106747;28;20468;-77
2021/09/30 05:02:12;;;;;;;0.73;0.60;;;;;;;0.91;100.00;94134.31;2085363;28;20048;-81
2021/09/30 05:03:13;;;;;;;0.70;0.50;;;;;;;0.88;100.00;94137.63;2094318;28;20024;-79
2021/09/30 05:04:14;;;;;;;2.47;0.70;;;;;;;0.90;100.00;94137.28;2116974;27;20124;-79
2021/09/30 05:05:15;;;;;;;0.70;0.68;;;;;;;0.99;100.00;94137.94;2106812;28;20769;-80
2021/09/30 05:06:17;;;;;;;1.10;0.60;;;;;;;1.05;100.00;94136.59;2083838;28;20033;-80
2021/09/30 05:07:22;;;;;;;1.65;0.73;;;;;;;0.91;100.00;94136.94;2094612;28;20120;-79
2021/09/30 05:08:23;;;;;;;3.55;0.70;;;;;;;0.84;100.00;94143.88;2089916;28;20036;-81
2021/09/30 05:09:25;;;;;;;2.00;0.60;;;;;;;0.90;100.00;94140.69;2090927;28;20111;-78
2021/09/30 05:10:32;;;;;;;1.17;0.82;;;;;;;0.89;100.00;94141.78;2111032;27;20106;-78
2021/09/30 05:11:39;;;;;;;0.47;0.47;;;;;;;0.96;100.00;94143.84;2104422;28;20024;-81
2021/09/30 05:12:41;;;;;;;0.80;0.70;;;;;;;0.93;100.00;94142.66;2099031;28;20028;-78
2021/09/30 05:13:43;;;;;;;0.40;0.40;;;;;;;0.96;100.00;94149.13;2102080;28;20024;-81
2021/09/30 05:14:44;;;;;;;1.20;0.80;;;;;;;1.04;100.00;94147.47;2106114;28;20024;-81
2021/09/30 05:15:45;;;;;;;0.90;0.68;;;;;;;1.04;100.00;94150.09;2097700;28;20020;-80
2021/09/30 05:16:48;;;;;;;0.98;0.80;;;;;;;0.86;100.00;94137.16;2106305;28;20024;-78
2021/09/30 05:17:48;;;;;;;0.95;0.82;;;;;;;0.79;100.00;94138.78;2115065;27;20016;-78
2021/09/30 05:18:51;;;;;;;0.90;0.70;;;;;;;0.72;100.00;94149.88;2113858;28;20027;-80
2021/09/30 05:19:54;;;;;;;0.95;0.80;;;;;;;0.69;100.00;94150.53;2098042;28;20016;-79
2021/09/30 05:20:55;;;;;;;3.45;0.77;;;;;;;0.77;100.00;94152.28;2102775;28;20024;-81
2021/09/30 05:21:55;;;;;;;1.13;0.70;;;;;;;0.83;100.00;94152.84;2105398;28;20024;-77
2021/09/30 05:22:57;;;;;;;2.38;1.00;;;;;;;0.80;100.00;94156.91;2114611;28;20027;-80
2021/09/30 05:23:58;;;;;;;1.45;0.65;;;;;;;0.86;100.00;94152.94;2121278;27;20015;-80
2021/09/30 05:24:59;;;;;;;1.05;0.63;;;;;;;0.87;100.00;94156.34;2106923;28;20452;-80
2021/09/30 05:26:00;;;;;;;2.75;0.80;;;;;;;0.90;100.00;94163.59;2109814;28;20019;-76
2021/09/30 05:27:01;;;;;;;0.80;0.70;;;;;;;0.88;100.00;94158.66;2116508;27;20401;-79
2021/09/30 05:28:02;;;;;;;1.00;0.90;;;;;;;0.65;100.00;94162.78;2108222;28;20409;-80
2021/09/30 05:29:04;;;;;;;1.25;0.63;;;;;;;0.58;100.00;94165.97;2114289;28;20031;-78
2021/09/30 05:30:05;;;;;;;0.70;0.70;;;;;;;0.69;100.00;94158.41;2122770;27;20029;-78
2021/09/30 05:31:07;;;;;;;0.95;0.80;;;;;;;0.67;100.00;94150.88;2123448;27;20031;-79
2021/09/30 05:32:08;;;;;;;1.88;0.73;;;;;;;0.58;100.00;94162.59;2114606;27;20118;-81
2021/09/30 05:33:08;;;;;;;0.50;0.50;;;;;;;0.60;100.00;94161.16;2097009;28;20024;-78
2021/09/30 05:34:09;;;;;;;4.65;0.85;;;;;;;0.66;100.00;94159.84;2097345;28;20078;-80
2021/09/30 05:35:10;;;;;;;0.68;0.68;;;;;;;0.70;100.00;94159.94;2114165;28;20032;-80
2021/09/30 05:36:11;;;;;;;0.63;0.63;;;;;;;0.65;100.00;94162.78;2122908;27;20915;-80
2021/09/30 05:37:12;;;;;;;4.13;0.90;;;;;;;0.57;100.00;94167.06;2118224;27;20793;-79
2021/09/30 05:38:13;;;;;;;0.80;0.80;;;;;;;0.63;100.00;94165.00;2105547;28;20028;-78
2021/09/30 05:39:14;;;;;;;3.38;0.68;;;;;;;0.63;100.00;94163.13;2109196;28;20023;-80
2021/09/30 05:40:15;;;;;;;1.67;0.70;;;;;;;0.57;100.00;94169.72;2100914;28;20013;-78
2021/09/30 05:41:16;;;;;;;5.90;0.70;;;;;;;0.47;100.00;94173.50;2095296;28;20021;-80
2021/09/30 05:42:18;;;;;;;3.13;0.70;;;;;;;0.52;100.00;94174.38;2105730;28;20038;-78
2021/09/30 05:43:26;;;;;;;1.27;0.60;;;;;;;0.64;100.00;94171.78;2113956;28;20032;-80
2021/09/30 05:44:29;;;;;;;1.02;0.85;;;;;;;0.56;100.00;94176.03;2114617;28;20032;-79
2021/09/30 05:45:32;;;;;;;2.50;1.77;;;;;;;0.59;100.00;94177.25;2113431;28;20020;-81
2021/09/30 05:46:41;;;;;;;3.75;3.40;;;;;;;0.70;100.00;94173.09;2114194;28;20051;-79
2021/09/30 05:47:43;;;;;;;9.60;7.22;;;;;;;0.63;100.00;94170.25;2114661;28;20023;-79
2021/09/30 05:48:44;;;;;;;20.95;12.00;;;;;;;0.67;100.00;94179.03;2117819;27;20065;-78
2021/09/30 05:49:45;;;;;;;31.08;17.92;;;;;;;0.69;100.00;94166.31;2110139;28;20020;-79
2021/09/30 05:50:46;;;;;;;13.15;8.77;;;;;;;0.67;100.00;94171.91;2097761;28;20021;-81
2021/09/30 05:51:47;;;;;;;13.25;7.75;;;;;;;0.64;100.00;94164.66;2088768;28;20064;-81
2021/09/30 05:52:48;;;;;;;12.50;8.38;;;;;;;0.67;100.00;94171.91;2097119;28;20025;-80
2021/09/30 05:53:49;;;;;;;13.70;9.02;;;;;;;0.67;100.00;94160.63;2097127;28;20097;-79
2021/09/30 05:54:50;;;;;;;14.00;9.68;;;;;;;0.69;100.00;94166.31;2105755;28;20073;-78
2021/09/30 05:55:52;;;;;;;35.20;18.08;;;;;;;0.67;100.00;94163.25;2105713;28;20059;-78
2021/09/30 05:56:53;;;;;;;28.80;17.10;;;;;;;0.75;100.00;94165.03;2115635;27;20071;-78
2021/09/30 05:57:54;;;;;;;24.13;15.20;;;;;;;0.73;100.00;94170.59;2106034;28;20078;-76
2021/09/30 05:58:55;;;;;;;18.48;10.80;;;;;;;0.76;100.00;94163.91;2115117;27;20119;-77
2021/09/30 06:00:06;;;;;;;14.93;8.50;;;;;;;0.77;100.00;94165.44;2122401;27;20019;-81
2021/09/30 06:04:32;;;;;;;8.43;5.70;;;;;;;0.86;100.00;94168.75;2106908;28;20448;-79
2021/09/30 06:11:41;;;;;;;2.33;1.40;;;;;;;1.10;100.00;94154.84;2109849;28;20020;-81
2021/09/30 06:13:00;;;;;;;1.20;1.00;;;;;;;1.28;100.00;94155.38;2103781;27;20523;-79
2021/09/30 06:14:07;;;;;;;2.85;1.05;;;;;;;1.33;100.00;94151.75;2104234;28;20063;-79
2021/09/30 06:15:14;;;;;;;1.70;1.13;;;;;;;1.36;100.00;94149.22;2105689;28;20024;-77
2021/09/30 06:16:18;;;;;;;1.20;1.00;;;;;;;1.32;100.00;94153.63;2113578;28;20033;-81
2021/09/30 06:17:20;;;;;;;1.42;1.33;;;;;;;1.33;100.00;94154.38;2110939;28;20086;-81
2021/09/30 06:18:21;;;;;;;1.90;1.80;;;;;;;1.36;100.00;94156.34;2102187;28;20024;-78
2021/09/30 06:19:22;;;;;;;2.33;1.77;;;;;;;1.44;100.00;94160.72;2113433;28;20507;-77
2021/09/30 06:20:23;;;;;;;2.95;1.85;;;;;;;1.46;100.00;94153.25;2112706;28;20024;-79
2021/09/30 06:21:24;;;;;;;1.95;1.83;;;;;;;1.51;100.00;94161.69;2112431;28;20559;-78
2021/09/30 06:22:25;;;;;;;2.17;1.60;;;;;;;1.46;100.00;94164.56;2110307;28;20019;-81
2021/09/30 06:23:26;;;;;;;1.80;1.50;;;;;;;1.64;100.00;94162.44;2108962;28;20016;-78
2021/09/30 06:24:26;;;;;;;2.00;1.30;;;;;;;1.71;100.00;94164.50;2113053;28;20446;-81
2021/09/30 06:25:27;;;;;;;1.60;1.50;;;;;;;1.77;100.00;94155.28;2105062;28;20028;-79
2021/09/30 06:26:28;;;;;;;2.08;1.65;;;;;;;1.85;100.00;94164.16;2100726;28;20029;-79
2021/09/30 06:27:30;;;;;;;3.40;1.65;;;;;;;1.88;100.00;94169.50;2097215;28;20070;-80
2021/09/30 06:28:31;;;;;;;2.13;1.50;;;;;;;1.93;100.00;94164.03;2107393;28;20020;-78
2021/09/30 06:29:32;;;;;;;1.38;1.27;;;;;;;1.97;100.00;94170.13;2101111;28;20154;-79
2021/09/30 06:30:33;;;;;;;3.17;1.40;;;;;;;1.96;100.00;94171.25;2105063;28;20044;-80
2021/09/30 06:31:34;;;;;;;1.30;1.10;;;;;;;1.99;100.00;94169.81;2111310;28;20032;-82
2021/09/30 06:32:35;;;;;;;2.10;1.10;;;;;;;2.03;100.00;94162.00;2105790;28;20015;-79
2021/09/30 06:33:36;;;;;;;1.17;0.95;;;;;;;2.05;100.00;94172.97;2111426;28;20132;-80
2021/09/30 06:34:38;;;;;;;1.48;1.20;;;;;;;2.08;100.00;94162.53;2102356;28;20035;-80
2021/09/30 06:35:39;;;;;;;0.98;0.75;;;;;;;2.11;100.00;94161.88;2107016;28;20048;-78
2021/09/30 06:36:40;;;;;;;1.10;1.00;;;;;;;2.10;100.00;94162.94;2111922;28;20775;-80
2021/09/30 06:37:41;;;;;;;1.02;0.93;;;;;;;2.07;100.00;94165.53;2106294;28;20030;-78
2021/09/30 06:38:41;;;;;;;0.85;0.85;;;;;;;2.04;100.00;94164.31;2104424;28;20046;-80
2021/09/30 06:39:42;;;;;;;0.80;0.80;;;;;;;2.26;100.00;94163.78;2112122;28;20012;-77
2021/09/30 06:40:45;;;;;;;1.10;1.00;;;;;;;2.23;100.00;94163.69;2109328;28;20057;-79
2021/09/30 06:41:46;;;;;;;0.82;0.60;;;;;;;2.24;100.00;94162.59;2111677;28;20380;-77
2021/09/30 06:42:47;;;;;;;3.13;1.02;;;;;;;2.27;100.00;94162.66;2109114;28;20024;-79
2021/09/30 06:43:48;;;;;;;1.75;0.90;;;;;;;2.35;100.00;94160.22;2115110;27;20076;-79
2021/09/30 06:44:49;;;;;;;2.25;0.98;;;;;;;2.36;100.00;94162.50;2114011;28;20046;-76
2021/09/30 06:45:51;;;;;;;1.90;1.00;;;;;;;2.43;100.00;94156.66;2106985;28;20050;-79
2021/09/30 06:46:52;;;;;;;1.10;0.90;;;;;;;2.52;100.00;94163.31;2102851;27;20020;-80
2021/09/30 06:47:52;;;;;;;3.40;1.05;;;;;;;2.43;100.00;94161.94;2107198;28;20048;-81
2021/09/30 06:48:53;;;;;;;2.50;1.08;;;;;;;2.48;100.00;94151.91;2110477;28;20054;-78
2021/09/30 06:49:54;;;;;;;1.92;1.42;;;;;;;2.50;100.00;94155.00;2108956;28;20194;-79
2021/09/30 06:50:55;;;;;;;2.58;1.05;;;;;;;2.37;100.00;94163.28;2115644;27;20518;-80
2021/09/30 06:51:56;;;;;;;1.38;0.90;;;;;;;2.42;100.00;94165.69;2117577;27;20111;-80
2021/09/30 06:52:59;;;;;;;4.00;0.93;;;;;;;2.48;100.00;94161.69;2117665;27;20030;-78
2021/09/30 06:53:59;;;;;;;1.17;0.75;;;;;;;2.57;100.00;94159.66;2112824;27;20097;-80
2021/09/30 06:55:01;;;;;;;1.60;0.90;;;;;;;2.52;100.00;94165.97;2108938;28;20050;-78
2021/09/30 06:56:05;;;;;;;2.63;0.90;;;;;;;2.56;100.00;94165.28;2106884;28;20080;-80
2021/09/30 06:57:06;;;;;;;1.92;0.90;;;;;;;2.73;100.00;94165.72;2111296;28;20020;-81
2021/09/30 06:58:08;;;;;;;0.88;0.80;;;;;;;2.74;100.00;94161.97;2116600;27;20099;-81
2021/09/30 06:59:15;;;;;;;1.25;1.15;;;;;;;2.89;100.00;94167.59;2115242;28;20040;-79
2021/09/30 07:00:17;;;;;;;1.45;1.05;;;;;;;2.90;100.00;94164.63;2116843;27;20145;-80
2021/09/30 07:01:18;;;;;;;1.00;0.90;;;;;;;2.97;100.00;94170.06;2114673;27;20019;-80
2021/09/30 07:02:22;;;;;;;1.10;1.00;;;;;;;3.02;100.00;94167.16;2104825;28;20020;-80
2021/09/30 07:03:27;;;;;;;1.63;1.00;;;;;;;3.01;100.00;94170.94;2109636;28;20531;-81
2021/09/30 07:04:28;;;;;;;0.80;0.80;;;;;;;3.09;100.00;94171.88;2106507;28;20089;-76
2021/09/30 07:05:30;;;;;;;1.98;1.05;;;;;;;3.10;100.00;94175.28;2110401;28;20036;-79
2021/09/30 07:06:30;;;;;;;0.75;0.75;;;;;;;3.12;100.00;94173.06;2119584;27;20023;-79
2021/09/30 07:07:33;;;;;;;0.98;0.90;;;;;;;3.16;100.00;94171.25;2114793;27;20067;-79
2021/09/30 07:08:34;;;;;;;0.60;0.60;;;;;;;3.16;100.00;94172.03;2116913;27;20026;-80
2021/09/30 07:09:35;;;;;;;0.90;0.80;;;;;;;3.23;100.00;94172.19;2104301;28;20115;-78
2021/09/30 07:10:36;;;;;;;1.50;0.63;;;;;;;3.26;100.00;94176.03;2108775;28;20190;-82
2021/09/30 07:11:37;;;;;;;0.82;0.80;;;;;;;3.33;100.00;94176.19;2105883;28;20020;-80
2021/09/30 07:12:39;;;;;;;1.92;0.82;;;;;;;3.42;100.00;94170.72;2109934;28;20421;-80
2021/09/30 07:13:40;;;;;;;0.77;0.70;;;;;;;3.38;100.00;94170.66;2111775;27;20492;-81
2021/09/30 07:14:41;;;;;;;1.08;1.00;;;;;;;3.41;100.00;94164.66;2102514;28;20027;-80
2021/09/30 07:15:42;;;;;;;1.88;0.60;;;;;;;3.55;100.00;94169.50;2106350;28;20012;-79
2021/09/30 07:16:43;;;;;;;0.85;0.70;;;;;;;3.57;100.00;94177.84;2110689;28;20027;-81
2021/09/30 07:17:44;;;;;;;0.57;0.57;;;;;;;3.60;100.00;94176.38;2113695;28;20020;-78
2021/09/30 07:18:45;;;;;;;1.50;0.63;;;;;;;3.70;100.00;94179.28;2106578;28;20024;-81
2021/09/30 07:19:46;;;;;;;0.90;0.70;;;;;;;3.80;100.00;94177.97;2096280;28;20013;-78
2021/09/30 07:21:00;;;;;;;3.88;0.88;;;;;;;3.88;100.00;94171.72;2114882;27;20020;-77
2021/09/30 07:22:03;;;;;;;1.23;0.80;;;;;;;3.95;100.00;94174.50;2112936;27;20035;-78
2021/09/30 07:23:04;;;;;;;0.70;0.70;;;;;;;4.02;100.00;94171.22;2114889;27;20028;-80
2021/09/30 07:24:05;;;;;;;1.33;0.88;;;;;;;4.08;100.00;94175.13;2109129;28;20059;-78
2021/09/30 07:25:07;;;;;;;1.98;0.80;;;;;;;4.18;100.00;94176.47;2108693;28;20401;-81
2021/09/30 07:26:09;;;;;;;2.95;0.80;;;;;;;4.15;100.00;94175.28;2098686;28;20028;-79
2021/09/30 07:27:11;;;;;;;2.75;0.88;;;;;;;4.17;100.00;94183.66;2108562;28;20065;-80
2021/09/30 07:28:12;;;;;;;2.03;0.70;;;;;;;4.22;100.00;94175.44;2116881;27;20488;-81
2021/09/30 07:29:13;;;;;;;1.27;0.73;;;;;;;4.29;100.00;94180.84;2113405;27;20027;-78
2021/09/30 07:30:14;;;;;;;2.05;0.88;;;;;;;4.37;100.00;94178.34;2114165;27;20025;-81
2021/09/30 07:31:15;;;;;;;1.15;0.90;;;;;;;4.41;100.00;94182.59;2114959;28;20027;-80
2021/09/30 07:32:16;;;;;;;0.75;0.75;;;;;;;4.55;100.00;94177.53;2110760;28;20404;-79
2021/09/30 07:33:18;;;;;;;0.95;0.88;;;;;;;4.75;100.00;94180.16;2111288;28;20055;-79
2021/09/30 07:34:18;;;;;;;2.28;0.80;;;;;;;4.79;100.00;94181.00;2111895;27;20031;-79
2021/09/30 07:35:19;;;;;;;2.15;0.80;;;;;;;4.84;100.00;94179.94;2116975;27;20063;-81
2021/09/30 07:36:20;;;;;;;0.75;0.70;;;;;;;4.90;100.00;94176.63;2115407;28;20020;-79
2021/09/30 07:37:21;;;;;;;2.92;1.02;;;;;;;4.93;100.00;94172.53;2111298;28;20468;-77
2021/09/30 07:38:23;;;;;;;1.20;1.00;;;;;;;4.95;100.00;94176.34;2107841;28;20103;-80
2021/09/30 07:39:24;;;;;;;1.05;0.80;;;;;;;4.98;100.00;94180.16;2110130;28;20383;-78
2021/09/30 07:40:24;;;;;;;0.80;0.80;;;;;;;5.07;100.00;94172.00;2102529;28;20019;-78
2021/09/30 07:41:25;;;;;;;2.92;0.98;;;;;;;5.11;100.00;94176.22;2114258;27;20024;-79
2021/09/30 07:42:26;;;;;;;2.15;0.80;;;;;;;5.10;100.00;94172.06;2110840;27;20094;-78
2021/09/30 07:43:27;;;;;;;3.97;0.90;;;;;;;5.20;100.00;94179.41;2109458;28;20024;-81
2021/09/30 07:44:32;;;;;;;1.83;0.70;;;;;;;5.28;100.00;94167.78;2108814;27;20043;-81
2021/09/30 07:45:33;;;;;;;1.13;0.60;;;;;;;5.36;100.00;94168.66;2110424;28;20024;-81
2021/09/30 07:46:37;;;;;;;2.65;0.70;;;;;;;5.46;100.00;94173.34;2109110;28;20047;-81
2021/09/30 07:47:38;;;;;;;1.77;0.82;;;;;;;5.58;100.00;94172.41;2105188;28;20028;-78